Time;durP1;ratioP1;P1;durP2;ratioP2;P2;SDS_P1;SDS_P2;PMS_P1;PMS_P2;Temp;Humidity;BMP_temperature;BMP_pressure;BME280_temperature;BME280_humidity;BME280_pressure;Samples;Min_cycle;Max_cycle;Signal;HPM_P1;HPM_P2
2023/06/10 06:01:00;;;;;;;6.15;5.25;;;;;;;;;;12746693;22;1497239;-85
2023/06/10 06:06:01;;;;;;;14.25;6.35;;;;;;;;;;12824571;23;20016;-85
2023/06/10 06:11:05;;;;;;;9.02;4.90;;;;;;;;;;12823612;23;20005;-86
2023/06/10 06:16:14;;;;;;;5.50;4.57;;;;;;;;;;12828040;23;20429;-83
2023/06/10 06:21:15;;;;;;;7.38;4.50;;;;;;;;;;12826039;23;20001;-83
2023/06/10 06:26:16;;;;;;;8.60;5.45;;;;;;;;;;12826238;23;20005;-83
2023/06/10 06:31:17;;;;;;;9.68;5.75;;;;;;;;;;12823960;23;20005;-81
2023/06/10 06:36:18;;;;;;;8.02;5.90;;;;;;;;;;12824207;23;20005;-82
2023/06/10 06:41:19;;;;;;;8.20;5.00;;;;;;;;;;12823986;23;20001;-82
2023/06/10 06:46:21;;;;;;;7.82;4.75;;;;;;;;;;12829253;23;20009;-83
2023/06/10 06:51:29;;;;;;;6.40;5.20;;;;;;;;;;12832899;23;20001;-83
2023/06/10 06:56:30;;;;;;;5.20;4.32;;;;;;;;;;12829184;23;20009;-84
2023/06/10 07:01:38;;;;;;;6.78;5.15;;;;;;;;;;12812058;23;20456;-83
2023/06/10 07:06:39;;;;;;;5.47;4.57;;;;;;;;;;12809787;23;20036;-80
2023/06/10 07:11:40;;;;;;;7.82;5.40;;;;;;;;;;12809493;23;20005;-82
2023/06/10 07:16:41;;;;;;;6.20;4.88;;;;;;;;;;12810667;23;20071;-81
2023/06/10 07:21:42;;;;;;;7.18;4.75;;;;;;;;;;12832437;23;19988;-82
2023/06/10 07:26:43;;;;;;;7.53;5.32;;;;;;;;;;12844451;23;20069;-82
2023/06/10 07:31:45;;;;;;;7.20;5.30;;;;;;;;;;12810706;23;20005;-81
2023/06/10 07:36:46;;;;;;;6.30;4.68;;;;;;;;;;12810695;23;20084;-81
2023/06/10 07:41:48;;;;;;;6.55;5.38;;;;;;;;;;12808582;23;20005;-81
2023/06/10 07:46:50;;;;;;;7.68;5.35;;;;;;;;;;12810954;23;20012;-82
2023/06/10 07:51:51;;;;;;;8.32;5.13;;;;;;;;;;12809724;23;20346;-82
2023/06/10 07:56:53;;;;;;;8.15;5.22;;;;;;;;;;12809200;23;20005;-84
2023/06/10 08:01:54;;;;;;;6.72;6.00;;;;;;;;;;12815002;23;20016;-84
2023/06/10 08:06:56;;;;;;;7.82;4.97;;;;;;;;;;12813840;23;20024;-82
2023/06/10 08:11:57;;;;;;;6.70;4.85;;;;;;;;;;12813196;23;20009;-83
2023/06/10 08:16:58;;;;;;;9.85;6.80;;;;;;;;;;12822581;23;20001;-84
2023/06/10 08:21:59;;;;;;;7.63;5.20;;;;;;;;;;12813537;23;20005;-83
2023/06/10 08:27:00;;;;;;;5.85;5.00;;;;;;;;;;12813839;23;20013;-83
2023/06/10 08:32:01;;;;;;;8.13;5.60;;;;;;;;;;12813516;23;20016;-83
2023/06/10 08:37:04;;;;;;;9.30;8.30;;;;;;;;;;12817793;23;20032;-83
2023/06/10 08:42:25;;;;;;;7.63;5.63;;;;;;;;;;12814757;23;20017;-82
2023/06/10 08:47:30;;;;;;;6.90;4.90;;;;;;;;;;12794714;23;20013;-81
2023/06/10 08:52:48;;;;;;;7.95;5.50;;;;;;;;;;12816773;23;20012;-82
2023/06/10 08:57:50;;;;;;;7.93;5.85;;;;;;;;;;12816789;23;20403;-83
2023/06/10 09:02:51;;;;;;;6.50;5.20;;;;;;;;;;12812556;23;20001;-83
2023/06/10 09:07:53;;;;;;;5.82;5.22;;;;;;;;;;12811971;23;20123;-81
2023/06/10 09:12:55;;;;;;;7.32;5.13;;;;;;;;;;12812837;23;20045;-82
2023/06/10 09:17:56;;;;;;;9.75;5.20;;;;;;;;;;12810426;23;20377;-82
2023/06/10 09:22:57;;;;;;;8.02;5.80;;;;;;;;;;12814865;23;20012;-82
2023/06/10 09:27:58;;;;;;;7.45;5.63;;;;;;;;;;12812126;23;20433;-80
2023/06/10 09:33:03;;;;;;;9.13;5.60;;;;;;;;;;12812373;23;20005;-81
2023/06/10 09:38:05;;;;;;;7.88;5.07;;;;;;;;;;12813169;23;20310;-82
2023/06/10 09:43:06;;;;;;;12.50;11.18;;;;;;;;;;12812134;23;20028;-82
2023/06/10 09:48:07;;;;;;;7.38;6.18;;;;;;;;;;12814715;23;20005;-82
2023/06/10 09:53:08;;;;;;;6.75;5.90;;;;;;;;;;12812266;23;20053;-82
2023/06/10 09:58:09;;;;;;;8.32;6.40;;;;;;;;;;12812823;23;20008;-83
2023/06/10 10:03:10;;;;;;;9.20;5.60;;;;;;;;;;12813795;23;20136;-82
2023/06/10 10:08:11;;;;;;;8.05;5.10;;;;;;;;;;12815328;23;20437;-81
2023/06/10 10:13:12;;;;;;;11.25;5.90;;;;;;;;;;12814616;23;20084;-82
2023/06/10 10:18:16;;;;;;;8.07;6.43;;;;;;;;;;12813434;23;20440;-82
2023/06/10 10:23:22;;;;;;;8.73;5.53;;;;;;;;;;12815326;23;20001;-83
2023/06/10 10:28:26;;;;;;;8.85;6.90;;;;;;;;;;12811466;23;20016;-82
2023/06/10 10:33:36;;;;;;;8.50;5.47;;;;;;;;;;12810612;23;20005;-84
2023/06/10 10:38:38;;;;;;;11.27;10.10;;;;;;;;;;12812926;23;20009;-82
2023/06/10 10:43:39;;;;;;;7.45;5.65;;;;;;;;;;12819535;23;20007;-83
2023/06/10 10:48:41;;;;;;;6.15;5.55;;;;;;;;;;12828824;23;20016;-83
2023/06/10 10:53:44;;;;;;;8.00;5.40;;;;;;;;;;12853850;23;19997;-84
2023/06/10 10:59:03;;;;;;;8.90;5.53;;;;;;;;;;12830201;23;20063;-84
2023/06/10 11:04:07;;;;;;;9.35;5.30;;;;;;;;;;12816411;23;19997;-82
2023/06/10 11:09:26;;;;;;;8.35;5.47;;;;;;;;;;12813666;23;20055;-81
2023/06/10 11:14:29;;;;;;;8.85;5.22;;;;;;;;;;12815524;23;20319;-84
2023/06/10 11:19:34;;;;;;;16.05;10.57;;;;;;;;;;12814989;23;20084;-83
2023/06/10 11:24:35;;;;;;;8.80;5.80;;;;;;;;;;12815862;23;20082;-83
2023/06/10 11:29:56;;;;;;;7.43;5.70;;;;;;;;;;12814702;23;20016;-84
2023/06/10 11:34:57;;;;;;;9.82;7.60;;;;;;;;;;12814454;23;20015;-84
2023/06/10 11:39:59;;;;;;;6.45;5.85;;;;;;;;;;12812772;23;20054;-84
2023/06/10 11:45:08;;;;;;;8.63;6.63;;;;;;;;;;12813126;23;20008;-83
2023/06/10 11:50:12;;;;;;;8.70;6.07;;;;;;;;;;12812387;23;20005;-82
2023/06/10 11:55:20;;;;;;;8.10;6.72;;;;;;;;;;12808158;23;20005;-81
2023/06/10 12:00:21;;;;;;;6.87;5.80;;;;;;;;;;12806968;23;20036;-81
2023/06/10 12:05:22;;;;;;;8.65;6.13;;;;;;;;;;12811980;23;19997;-81
2023/06/10 12:10:23;;;;;;;6.35;5.60;;;;;;;;;;12810498;23;20005;-81
2023/06/10 12:15:25;;;;;;;9.63;5.88;;;;;;;;;;12821709;23;20005;-84
2023/06/10 12:20:32;;;;;;;7.32;5.32;;;;;;;;;;12817309;23;20005;-84
2023/06/10 12:25:33;;;;;;;8.02;6.45;;;;;;;;;;12818365;23;20000;-84
2023/06/10 12:30:34;;;;;;;8.30;6.30;;;;;;;;;;12818209;23;20009;-84
2023/06/10 12:35:47;;;;;;;7.40;5.88;;;;;;;;;;12817706;23;20314;-84
2023/06/10 12:40:49;;;;;;;6.47;5.75;;;;;;;;;;12819505;23;20318;-84
2023/06/10 12:45:50;;;;;;;9.13;6.00;;;;;;;;;;12815985;23;20001;-84
2023/06/10 12:50:52;;;;;;;6.90;6.18;;;;;;;;;;12817373;23;20032;-84
2023/06/10 12:55:53;;;;;;;8.25;6.30;;;;;;;;;;12817197;23;20457;-84
2023/06/10 13:00:54;;;;;;;6.57;5.97;;;;;;;;;;12817954;23;20009;-84
2023/06/10 13:05:56;;;;;;;6.85;5.85;;;;;;;;;;12817152;23;20052;-83
2023/06/10 13:10:57;;;;;;;5.70;5.20;;;;;;;;;;12826493;23;20012;-84
2023/06/10 13:15:58;;;;;;;6.50;5.40;;;;;;;;;;12820412;23;20069;-84
2023/06/10 13:20:59;;;;;;;7.13;5.60;;;;;;;;;;12816539;23;20028;-84
2023/06/10 13:26:02;;;;;;;5.85;5.35;;;;;;;;;;12816998;23;20005;-85
2023/06/10 13:31:03;;;;;;;8.73;5.45;;;;;;;;;;12819800;23;20001;-84
2023/06/10 13:36:04;;;;;;;9.82;6.60;;;;;;;;;;12818943;23;20004;-84
2023/06/10 13:41:06;;;;;;;12.15;9.25;;;;;;;;;;12819432;23;20007;-84
2023/06/10 13:46:07;;;;;;;7.07;6.20;;;;;;;;;;12816979;23;20005;-84
2023/06/10 13:51:09;;;;;;;7.63;6.00;;;;;;;;;;12814743;23;20044;-84
2023/06/10 13:56:11;;;;;;;7.47;5.65;;;;;;;;;;12836648;23;20005;-84
2023/06/10 14:01:12;;;;;;;10.70;6.07;;;;;;;;;;12837717;23;20009;-84
2023/06/10 14:06:18;;;;;;;6.50;5.50;;;;;;;;;;12840233;23;20397;-84
2023/06/10 14:11:20;;;;;;;6.90;5.93;;;;;;;;;;12843458;23;20027;-84
2023/06/10 14:16:21;;;;;;;6.63;5.82;;;;;;;;;;12855176;23;20020;-84
2023/06/10 14:21:23;;;;;;;6.43;5.30;;;;;;;;;;12842096;23;20020;-85
2023/06/10 14:26:26;;;;;;;8.70;5.60;;;;;;;;;;12826737;23;20007;-85
2023/06/10 14:31:27;;;;;;;7.47;5.80;;;;;;;;;;12823537;23;20008;-83
2023/06/10 14:36:28;;;;;;;7.65;6.47;;;;;;;;;;12821311;23;20011;-83
2023/06/10 14:41:29;;;;;;;6.88;5.78;;;;;;;;;;12820858;23;20001;-83
2023/06/10 14:46:30;;;;;;;7.57;6.22;;;;;;;;;;12822270;23;20310;-83
2023/06/10 14:51:34;;;;;;;9.52;7.75;;;;;;;;;;12821288;23;20029;-83
2023/06/10 14:56:35;;;;;;;6.70;5.82;;;;;;;;;;12823819;23;20012;-83
2023/06/10 15:01:36;;;;;;;6.63;5.90;;;;;;;;;;12819816;23;20009;-83
2023/06/10 15:06:38;;;;;;;6.05;5.55;;;;;;;;;;12819783;23;20394;-83
2023/06/10 15:11:40;;;;;;;6.38;5.68;;;;;;;;;;12818359;23;20447;-83
2023/06/10 15:16:41;;;;;;;7.65;6.00;;;;;;;;;;12819493;23;20008;-83
2023/06/10 15:21:42;;;;;;;7.82;5.70;;;;;;;;;;12819418;23;19997;-83
2023/06/10 15:26:44;;;;;;;9.73;6.25;;;;;;;;;;12818516;23;20012;-83
2023/06/10 15:31:45;;;;;;;8.45;5.80;;;;;;;;;;12817264;23;20032;-83
2023/06/10 15:36:46;;;;;;;8.18;5.45;;;;;;;;;;12817260;23;20063;-83
2023/06/10 15:41:47;;;;;;;10.15;8.20;;;;;;;;;;12816729;23;20001;-83
2023/06/10 15:46:50;;;;;;;6.75;5.45;;;;;;;;;;12818333;23;20005;-83
2023/06/10 15:51:51;;;;;;;7.78;5.68;;;;;;;;;;12819910;23;20005;-83
2023/06/10 15:56:52;;;;;;;7.00;5.97;;;;;;;;;;12819969;23;20008;-82
2023/06/10 16:01:53;;;;;;;7.35;6.63;;;;;;;;;;12824858;23;20016;-84
2023/06/10 16:06:54;;;;;;;6.55;5.85;;;;;;;;;;12840405;23;20016;-84
2023/06/10 16:11:55;;;;;;;7.15;6.38;;;;;;;;;;12840810;23;20037;-84
2023/06/10 16:16:57;;;;;;;8.85;5.70;;;;;;;;;;12841623;23;20005;-84
2023/06/10 16:21:58;;;;;;;6.90;5.90;;;;;;;;;;12841578;23;20021;-84
2023/06/10 16:26:59;;;;;;;6.70;5.95;;;;;;;;;;12834230;23;19989;-84
2023/06/10 16:32:00;;;;;;;6.20;5.60;;;;;;;;;;12819420;23;20056;-84
2023/06/10 16:37:01;;;;;;;9.18;7.25;;;;;;;;;;12823789;23;20056;-84
2023/06/10 16:42:02;;;;;;;7.78;6.05;;;;;;;;;;12822614;23;20001;-82
2023/06/10 16:47:03;;;;;;;8.95;7.70;;;;;;;;;;12816947;23;20009;-84
2023/06/10 16:52:05;;;;;;;8.00;6.03;;;;;;;;;;12816096;23;20005;-84
2023/06/10 16:57:06;;;;;;;8.35;5.75;;;;;;;;;;12814373;23;20493;-85
2023/06/10 17:02:08;;;;;;;8.65;5.20;;;;;;;;;;12815697;23;20012;-83
2023/06/10 17:07:09;;;;;;;7.50;5.85;;;;;;;;;;12813352;23;20016;-83
2023/06/10 17:12:10;;;;;;;8.10;6.18;;;;;;;;;;12814628;23;20389;-83
2023/06/10 17:17:12;;;;;;;6.20;5.30;;;;;;;;;;12815642;23;20005;-83
2023/06/10 17:22:13;;;;;;;6.95;6.00;;;;;;;;;;12814614;23;20115;-83
2023/06/10 17:27:14;;;;;;;8.25;5.85;;;;;;;;;;12818970;23;20012;-83
2023/06/10 17:32:16;;;;;;;6.75;5.75;;;;;;;;;;12848119;23;20003;-82
2023/06/10 17:37:17;;;;;;;7.05;6.03;;;;;;;;;;12853168;23;19997;-83
2023/06/10 17:42:18;;;;;;;6.35;5.38;;;;;;;;;;12831139;23;20441;-83
2023/06/10 17:47:20;;;;;;;6.18;5.68;;;;;;;;;;12814187;23;20009;-83
2023/06/10 17:52:21;;;;;;;6.30;5.70;;;;;;;;;;12813661;23;20005;-83
2023/06/10 17:57:22;;;;;;;6.55;5.88;;;;;;;;;;12813148;23;20043;-83
2023/06/10 18:02:23;;;;;;;6.82;5.50;;;;;;;;;;12812911;23;20005;-83
2023/06/10 18:07:24;;;;;;;6.00;5.40;;;;;;;;;;12812393;23;20338;-83
2023/06/10 18:12:28;;;;;;;7.45;6.00;;;;;;;;;;12792549;23;20101;-88
